createdAt,value
2023-08-11T00:13:09.896Z,18.10
2023-08-11T00:28:13.046Z,18.65
2023-08-11T00:43:16.256Z,18.77
2023-08-11T00:58:19.730Z,18.60
2023-08-11T01:13:24.901Z,18.40
2023-08-11T01:28:29.078Z,17.95
2023-08-11T01:43:32.771Z,17.81
2023-08-11T01:58:35.956Z,17.86
2023-08-11T02:13:39.228Z,17.74
2023-08-11T02:28:42.810Z,17.52
2023-08-11T02:43:46.560Z,17.55
2023-08-11T02:58:49.721Z,17.31
2023-08-11T03:13:52.933Z,17.22
2023-08-11T03:28:56.236Z,17.08
2023-08-11T03:43:59.789Z,17.16
2023-08-11T03:59:04.173Z,16.99
2023-08-11T04:14:08.701Z,17.18
2023-08-11T04:29:12.026Z,17.41
2023-08-11T04:44:15.750Z,17.58
2023-08-11T04:59:19.501Z,17.73
2023-08-11T05:14:24.433Z,18.22
2023-08-11T05:29:27.609Z,19.07
2023-08-11T05:44:30.756Z,21.48
2023-08-11T05:59:34.046Z,25.30
2023-08-11T06:14:37.241Z,27.20
2023-08-11T06:29:40.447Z,28.97
2023-08-11T06:44:45.625Z,29.95
2023-08-11T06:59:49.426Z,31.01
2023-08-11T07:14:53.025Z,31.73
2023-08-11T07:29:56.266Z,32.38
2023-08-11T07:44:59.432Z,32.47
2023-08-11T08:00:02.698Z,32.82
2023-08-11T08:15:18.484Z,33.07
2023-08-11T08:30:21.825Z,32.54
2023-08-11T08:45:26.291Z,32.46
2023-08-11T09:00:29.969Z,32.76
2023-08-11T09:15:34.331Z,33.14
2023-08-11T09:30:37.799Z,31.91
2023-08-11T09:45:41.072Z,32.10
2023-08-11T10:00:46.693Z,33.16
2023-08-11T10:15:52.588Z,33.68
2023-08-11T10:31:03.894Z,32.25
2023-08-11T10:46:26.308Z,32.11
2023-08-11T11:01:29.816Z,30.35
2023-08-11T11:16:34.139Z,30.37
2023-08-11T11:31:40.952Z,33.00
2023-08-11T11:46:44.469Z,33.12
2023-08-11T12:01:47.817Z,32.40
2023-08-11T12:16:51.138Z,32.07
2023-08-11T12:31:54.378Z,32.00
2023-08-11T12:46:57.616Z,32.00
2023-08-11T13:02:00.874Z,31.26
2023-08-11T13:17:04.343Z,31.96
2023-08-11T13:32:07.763Z,31.66
2023-08-11T13:47:12.068Z,30.68
2023-08-11T14:02:15.209Z,30.94
2023-08-11T14:17:18.677Z,30.61
2023-08-11T14:32:26.278Z,31.24
2023-08-11T14:47:30.476Z,31.07
2023-08-11T15:02:34.075Z,30.14
2023-08-11T15:17:37.507Z,30.65
2023-08-11T15:32:40.921Z,30.86
2023-08-11T15:47:44.351Z,30.08
2023-08-11T16:02:47.570Z,29.24
2023-08-11T16:17:54.756Z,29.45
2023-08-11T16:33:14.899Z,29.35
2023-08-11T16:48:36.927Z,28.14
2023-08-11T17:03:59.009Z,27.42
2023-08-11T17:19:13.997Z,27.39
2023-08-11T17:34:34.055Z,26.79
2023-08-11T17:49:44.458Z,26.20
2023-08-11T18:04:59.279Z,25.29
2023-08-11T18:20:15.196Z,23.95
2023-08-11T18:51:50.225Z,21.96
2023-08-11T19:07:12.637Z,21.88
2023-08-11T19:22:21.282Z,22.17
2023-08-11T19:37:25.630Z,21.63
2023-08-11T19:52:29.610Z,20.87
2023-08-11T20:07:33.082Z,20.06
2023-08-11T20:22:37.020Z,20.07
2023-08-11T20:37:40.678Z,19.77
2023-08-11T20:52:44.290Z,19.37
2023-08-11T21:07:47.978Z,19.30
2023-08-11T21:22:51.575Z,19.22
2023-08-11T21:37:55.112Z,18.59
2023-08-11T21:53:06.610Z,17.90
2023-08-11T22:08:17.156Z,18.10
2023-08-11T22:23:20.548Z,18.20
2023-08-11T22:38:24.387Z,18.09
2023-08-11T22:53:28.388Z,18.11
2023-08-11T23:08:31.796Z,17.70
2023-08-11T23:23:35.380Z,17.11
2023-08-11T23:38:38.921Z,17.06
2023-08-11T23:53:42.907Z,16.81
